createdAt,value
2023-03-28T00:00:38.198Z,11.98
2023-03-28T00:02:42.384Z,12.75
2023-03-28T00:04:43.945Z,8.40
2023-03-28T00:06:48.354Z,12.20
2023-03-28T00:08:51.204Z,10.63
2023-03-28T00:10:52.666Z,9.60
2023-03-28T00:12:54.192Z,5.75
2023-03-28T00:15:15.293Z,9.82
2023-03-28T00:17:19.353Z,5.88
2023-03-28T00:19:24.190Z,7.88
2023-03-28T00:21:32.755Z,4.60
2023-03-28T00:23:57.112Z,7.18
2023-03-28T00:26:04.982Z,5.65
2023-03-28T00:28:06.867Z,8.27
2023-03-28T00:30:09.580Z,10.80
2023-03-28T00:32:11.109Z,7.10
2023-03-28T00:34:15.399Z,8.60
2023-03-28T00:36:23.476Z,4.70
2023-03-28T00:38:24.998Z,7.05
2023-03-28T00:40:26.986Z,6.63
2023-03-28T00:42:46.796Z,7.28
2023-03-28T00:44:50.149Z,17.30
2023-03-28T00:46:51.926Z,7.50
2023-03-28T00:49:13.940Z,8.35
2023-03-28T00:51:35.914Z,13.15
2023-03-28T00:53:41.542Z,2.38
2023-03-28T00:55:53.418Z,5.68
2023-03-28T00:57:57.982Z,9.45
2023-03-28T00:59:59.591Z,6.03
2023-03-28T01:02:01.701Z,8.45
2023-03-28T01:04:03.356Z,9.20
2023-03-28T01:06:08.646Z,6.53
2023-03-28T01:08:16.843Z,9.15
2023-03-28T01:10:19.363Z,8.43
2023-03-28T01:12:23.923Z,7.63
2023-03-28T01:14:29.736Z,4.22
2023-03-28T01:16:34.011Z,5.30
2023-03-28T01:18:54.373Z,4.88
2023-03-28T01:21:06.651Z,5.93
2023-03-28T01:23:16.766Z,7.13
2023-03-28T01:25:59.381Z,5.68
2023-03-28T01:28:12.560Z,3.97
2023-03-28T01:30:31.477Z,5.55
2023-03-28T01:32:56.684Z,10.45
2023-03-28T01:35:27.134Z,8.65
2023-03-28T01:37:55.811Z,9.50
2023-03-28T01:40:15.169Z,11.00
2023-03-28T01:42:56.237Z,10.38
2023-03-28T01:45:06.291Z,11.20
2023-03-28T01:47:37.023Z,6.95
2023-03-28T01:49:53.552Z,11.43
2023-03-28T01:52:16.016Z,7.68
2023-03-28T01:54:34.779Z,8.80
2023-03-28T01:57:14.963Z,14.32
2023-03-28T01:59:30.004Z,10.13
2023-03-28T02:01:36.797Z,10.77
2023-03-28T02:03:40.724Z,5.15
2023-03-28T02:05:43.175Z,5.43
2023-03-28T02:07:48.896Z,4.18
2023-03-28T02:09:54.809Z,9.57
2023-03-28T02:11:58.132Z,5.60
2023-03-28T02:14:06.987Z,7.32
2023-03-28T02:16:12.590Z,13.75
2023-03-28T02:18:20.530Z,16.83
2023-03-28T02:20:24.844Z,11.77
2023-03-28T02:22:35.439Z,11.85
2023-03-28T02:24:39.477Z,12.85
2023-03-28T02:26:43.931Z,11.45
2023-03-28T02:28:54.594Z,16.05
2023-03-28T02:30:56.150Z,6.63
2023-03-28T02:35:26.769Z,10.35
2023-03-28T02:37:52.227Z,6.53
2023-03-28T02:40:02.072Z,9.52
2023-03-28T02:42:14.560Z,7.57
2023-03-28T02:44:20.953Z,11.32
2023-03-28T02:46:28.754Z,9.90
2023-03-28T02:48:33.245Z,6.28
2023-03-28T02:50:37.275Z,12.13
2023-03-28T02:52:50.732Z,15.00
2023-03-28T02:55:18.175Z,5.53
2023-03-28T02:57:25.198Z,7.22
2023-03-28T02:59:35.991Z,7.43
2023-03-28T03:01:41.604Z,11.65
2023-03-28T03:03:47.087Z,10.57
2023-03-28T03:05:48.624Z,8.90
2023-03-28T03:07:56.388Z,11.20
2023-03-28T03:10:05.182Z,14.90
2023-03-28T03:12:09.355Z,7.35
2023-03-28T03:14:11.704Z,9.40
2023-03-28T03:16:18.925Z,12.35
2023-03-28T03:18:23.467Z,15.32
2023-03-28T03:20:33.966Z,9.35
2023-03-28T03:22:41.501Z,20.65
2023-03-28T03:26:51.008Z,14.10
2023-03-28T03:28:52.462Z,12.43
2023-03-28T03:30:56.542Z,14.30
2023-03-28T03:33:05.603Z,13.20
2023-03-28T03:35:09.963Z,13.50
2023-03-28T03:37:15.023Z,13.15
2023-03-28T03:39:16.419Z,19.33
2023-03-28T03:41:18.020Z,13.27
2023-03-28T03:43:38.015Z,13.38
2023-03-28T03:47:43.482Z,13.95
2023-03-28T03:58:32.861Z,19.73
2023-03-28T04:00:34.528Z,13.93
2023-03-28T04:02:39.278Z,12.55
2023-03-28T04:04:41.268Z,20.77
2023-03-28T04:06:42.809Z,13.02
2023-03-28T04:08:44.343Z,20.25
2023-03-28T04:10:47.407Z,19.30
2023-03-28T04:12:49.314Z,14.32
2023-03-28T04:14:53.491Z,16.13
2023-03-28T04:16:54.945Z,13.45
2023-03-28T04:21:02.244Z,20.20
2023-03-28T04:23:08.341Z,10.90
2023-03-28T04:25:14.158Z,19.48
2023-03-28T04:27:18.586Z,15.57
2023-03-28T04:29:35.866Z,15.35
2023-03-28T04:31:53.850Z,17.67
2023-03-28T04:34:10.624Z,19.75
2023-03-28T04:36:37.963Z,16.42
2023-03-28T04:38:49.298Z,17.50
2023-03-28T04:41:03.463Z,26.75
2023-03-28T04:43:15.691Z,25.55
2023-03-28T04:45:30.006Z,10.98
2023-03-28T04:49:56.965Z,17.93
2023-03-28T04:52:05.929Z,19.98
2023-03-28T04:54:19.226Z,22.67
2023-03-28T04:56:28.165Z,25.73
2023-03-28T04:58:38.551Z,24.45
2023-03-28T05:00:47.379Z,24.88
2023-03-28T05:02:49.262Z,18.23
2023-03-28T05:04:51.027Z,20.23
2023-03-28T05:06:52.580Z,22.75
2023-03-28T05:08:53.969Z,13.35
2023-03-28T05:11:14.153Z,27.58
2023-03-28T05:15:22.129Z,16.17
2023-03-28T05:17:27.943Z,16.05
2023-03-28T05:19:31.954Z,20.35
2023-03-28T05:21:36.227Z,29.40
2023-03-28T05:23:37.877Z,18.73
2023-03-28T05:25:40.054Z,30.20
2023-03-28T05:27:44.176Z,22.13
2023-03-28T05:30:05.524Z,35.83
2023-03-28T05:32:09.814Z,20.20
2023-03-28T05:34:14.257Z,21.88
2023-03-28T05:38:21.820Z,23.02
2023-03-28T05:40:23.293Z,17.55
2023-03-28T05:42:24.994Z,23.45
2023-03-28T05:44:26.435Z,24.70
2023-03-28T05:46:27.872Z,29.17
2023-03-28T05:48:29.309Z,18.63
2023-03-28T05:50:30.813Z,23.13
2023-03-28T05:52:32.263Z,21.55
2023-03-28T05:54:33.723Z,17.40
2023-03-28T05:56:35.891Z,27.42
2023-03-28T05:58:40.402Z,19.02
2023-03-28T06:00:44.871Z,23.00
2023-03-28T06:02:46.854Z,23.48
2023-03-28T06:04:48.663Z,26.65
2023-03-28T06:06:53.509Z,29.35
2023-03-28T06:08:54.982Z,23.35
2023-03-28T06:11:14.957Z,33.78
2023-03-28T06:13:19.540Z,27.15
2023-03-28T06:15:21.063Z,17.50
2023-03-28T06:17:22.697Z,21.92
2023-03-28T06:19:27.219Z,25.98
2023-03-28T06:21:28.765Z,28.05
2023-03-28T06:23:33.103Z,35.97
2023-03-28T06:25:37.396Z,19.35
2023-03-28T06:27:38.859Z,35.25
2023-03-28T06:31:44.432Z,23.77
2023-03-28T06:33:46.059Z,20.42
2023-03-28T06:35:47.845Z,18.05
2023-03-28T06:37:52.256Z,16.73
2023-03-28T06:39:56.978Z,22.35
2023-03-28T06:42:03.398Z,22.95
2023-03-28T06:44:23.836Z,22.98
2023-03-28T06:46:25.771Z,21.45
2023-03-28T06:48:33.586Z,16.77
2023-03-28T06:50:36.407Z,20.25
2023-03-28T06:52:37.984Z,27.05
2023-03-28T06:54:59.014Z,21.05
2023-03-28T06:57:03.292Z,23.55
2023-03-28T06:59:04.841Z,15.95
2023-03-28T07:01:08.952Z,15.77
2023-03-28T07:03:11.070Z,24.00
2023-03-28T07:05:12.666Z,23.63
2023-03-28T07:07:17.087Z,21.25
2023-03-28T07:09:18.586Z,18.30
2023-03-28T07:11:20.305Z,21.83
2023-03-28T07:15:24.347Z,20.40
2023-03-28T07:17:28.738Z,18.90
2023-03-28T07:19:30.399Z,16.80
2023-03-28T07:21:34.603Z,14.43
2023-03-28T07:23:36.403Z,14.15
2023-03-28T07:25:56.208Z,18.70
2023-03-28T07:28:01.060Z,11.48
2023-03-28T07:30:05.862Z,16.48
2023-03-28T07:32:07.396Z,19.33
2023-03-28T07:34:08.925Z,12.13
2023-03-28T07:36:15.252Z,30.00
2023-03-28T07:38:16.900Z,18.33
2023-03-28T07:40:21.178Z,12.27
2023-03-28T07:44:45.720Z,18.67
2023-03-28T07:46:47.333Z,11.18
2023-03-28T07:48:51.633Z,13.20
2023-03-28T07:50:53.081Z,15.30
2023-03-28T07:52:57.908Z,14.85
2023-03-28T07:54:59.752Z,15.70
2023-03-28T07:57:04.255Z,20.48
2023-03-28T07:59:08.891Z,25.40
2023-03-28T08:01:13.813Z,20.63
2023-03-28T08:03:16.023Z,11.60
2023-03-28T08:05:21.851Z,20.48
2023-03-28T08:07:25.605Z,11.57
2023-03-28T08:09:27.312Z,17.48
2023-03-28T08:11:31.441Z,16.52
2023-03-28T08:13:35.813Z,12.45
2023-03-28T08:15:40.169Z,15.93
2023-03-28T08:17:44.664Z,14.38
2023-03-28T08:19:49.145Z,24.52
2023-03-28T08:21:53.440Z,17.75
2023-03-28T08:23:55.912Z,22.38
2023-03-28T08:26:04.746Z,12.80
2023-03-28T08:28:09.867Z,18.52
2023-03-28T08:30:14.541Z,16.15
2023-03-28T08:32:16.057Z,22.00
2023-03-28T08:34:17.756Z,18.70
2023-03-28T08:36:22.992Z,16.05
2023-03-28T08:38:25.065Z,15.32
2023-03-28T08:40:28.879Z,15.95
2023-03-28T08:42:46.730Z,17.77
2023-03-28T08:45:08.758Z,21.60
2023-03-28T08:47:14.682Z,15.15
2023-03-28T08:49:17.640Z,30.13
2023-03-28T08:51:22.271Z,15.52
2023-03-28T08:53:26.627Z,17.20
2023-03-28T08:55:39.174Z,17.15
2023-03-28T08:57:44.587Z,11.85
2023-03-28T09:00:14.991Z,22.38
2023-03-28T09:02:35.113Z,19.15
2023-03-28T09:04:37.150Z,23.58
2023-03-28T09:06:43.727Z,17.25
2023-03-28T09:10:59.461Z,15.48
2023-03-28T09:13:03.821Z,9.05
2023-03-28T09:15:26.818Z,15.32
2023-03-28T09:17:41.953Z,14.30
2023-03-28T09:19:48.819Z,15.93
2023-03-28T09:22:14.812Z,17.27
2023-03-28T09:24:20.077Z,14.70
2023-03-28T09:26:27.356Z,16.48
2023-03-28T09:28:38.308Z,25.50
2023-03-28T09:30:47.595Z,11.57
2023-03-28T09:32:53.069Z,16.80
2023-03-28T09:34:54.958Z,17.17
2023-03-28T09:36:59.661Z,15.55
2023-03-28T09:39:11.790Z,11.52
2023-03-28T09:41:27.494Z,16.20
2023-03-28T09:43:59.224Z,9.63
2023-03-28T09:46:08.809Z,27.08
2023-03-28T09:48:19.643Z,11.35
2023-03-28T09:50:24.202Z,11.30
2023-03-28T09:52:29.480Z,14.95
2023-03-28T09:54:33.645Z,6.50
2023-03-28T09:56:43.334Z,19.50
2023-03-28T09:58:49.982Z,17.52
2023-03-28T10:00:54.949Z,12.05
2023-03-28T10:02:56.864Z,15.50
2023-03-28T10:05:29.079Z,7.63
2023-03-28T10:07:43.952Z,7.10
2023-03-28T10:09:50.699Z,10.43
2023-03-28T10:11:59.933Z,8.18
2023-03-28T10:14:01.539Z,12.25
2023-03-28T10:16:04.691Z,7.55
2023-03-28T10:18:15.672Z,9.52
2023-03-28T10:20:21.765Z,7.28
2023-03-28T10:22:36.294Z,8.77
2023-03-28T10:24:39.774Z,14.40
2023-03-28T10:26:41.680Z,12.35
2023-03-28T10:28:46.305Z,9.50
2023-03-28T10:30:55.013Z,4.43
2023-03-28T10:33:10.262Z,10.45
2023-03-28T10:37:27.300Z,5.40
2023-03-28T10:39:35.185Z,11.27
2023-03-28T10:41:53.504Z,4.55
2023-03-28T10:44:02.403Z,14.18
2023-03-28T10:46:08.954Z,7.45
2023-03-28T10:48:21.745Z,16.05
2023-03-28T10:50:43.874Z,16.02
2023-03-28T10:52:54.281Z,10.52
2023-03-28T10:55:19.811Z,12.35
2023-03-28T10:57:26.075Z,4.20
2023-03-28T10:59:34.684Z,10.30
2023-03-28T11:01:58.741Z,7.75
2023-03-28T11:04:14.267Z,9.85
2023-03-28T11:06:42.476Z,8.68
2023-03-28T11:09:09.184Z,17.83
2023-03-28T11:11:36.876Z,8.27
2023-03-28T11:13:50.264Z,10.60
2023-03-28T11:16:10.704Z,6.38
2023-03-28T11:18:37.051Z,2.92
2023-03-28T11:20:53.661Z,3.42
2023-03-28T11:23:06.289Z,4.82
2023-03-28T11:25:26.819Z,6.47
2023-03-28T11:27:35.211Z,10.70
2023-03-28T11:29:56.939Z,4.00
2023-03-28T11:32:04.494Z,7.93
2023-03-28T11:34:18.162Z,4.40
2023-03-28T11:36:32.838Z,9.68
2023-03-28T11:38:40.298Z,5.32
2023-03-28T11:40:44.809Z,7.50
2023-03-28T11:42:56.052Z,3.45
2023-03-28T11:45:03.106Z,7.50
2023-03-28T11:49:24.823Z,7.13
2023-03-28T11:51:33.523Z,7.63
2023-03-28T11:53:50.664Z,4.97
2023-03-28T11:55:57.673Z,9.27
2023-03-28T11:58:19.493Z,5.30
2023-03-28T12:00:33.893Z,6.13
2023-03-28T12:02:39.048Z,5.43
2023-03-28T12:04:48.756Z,3.83
2023-03-28T12:07:11.490Z,8.88
2023-03-28T12:09:36.638Z,6.47
2023-03-28T12:11:53.999Z,3.17
2023-03-28T12:14:11.439Z,5.45
2023-03-28T12:16:16.237Z,10.30
2023-03-28T12:18:27.116Z,4.60
2023-03-28T12:20:49.601Z,6.47
2023-03-28T12:22:55.151Z,3.40
2023-03-28T12:24:56.524Z,7.97
2023-03-28T12:26:58.105Z,4.72
2023-03-28T12:29:03.859Z,7.72
2023-03-28T12:31:14.796Z,4.20
2023-03-28T12:33:37.386Z,11.82
2023-03-28T12:35:56.297Z,4.57
2023-03-28T12:38:07.011Z,3.13
2023-03-28T12:40:35.245Z,2.80
2023-03-28T12:42:43.493Z,3.45
2023-03-28T12:44:51.560Z,9.60
2023-03-28T12:46:58.930Z,10.75
2023-03-28T12:49:08.905Z,16.27
2023-03-28T12:51:15.568Z,12.07
2023-03-28T12:53:24.291Z,5.72
2023-03-28T12:55:46.146Z,6.60
2023-03-28T12:57:50.932Z,7.20
2023-03-28T13:00:01.629Z,5.68
2023-03-28T13:02:10.921Z,10.02
2023-03-28T13:04:51.267Z,11.40
2023-03-28T13:07:14.700Z,8.98
2023-03-28T13:09:26.297Z,4.85
2023-03-28T13:11:48.812Z,8.88
2023-03-28T13:14:01.835Z,8.82
2023-03-28T13:16:25.059Z,3.15
2023-03-28T13:18:46.456Z,4.47
2023-03-28T13:20:52.152Z,6.45
2023-03-28T13:23:04.703Z,6.82
2023-03-28T13:25:22.385Z,4.70
2023-03-28T13:27:32.573Z,3.20
2023-03-28T13:29:58.569Z,10.68
2023-03-28T13:32:03.579Z,14.32
2023-03-28T13:34:05.428Z,6.88
2023-03-28T13:36:10.524Z,4.28
2023-03-28T13:38:30.804Z,4.55
2023-03-28T13:40:58.103Z,6.78
2023-03-28T13:43:07.494Z,4.68
2023-03-28T13:45:21.728Z,3.80
2023-03-28T13:47:33.362Z,9.48
2023-03-28T13:49:50.664Z,7.35
2023-03-28T13:51:59.646Z,6.65
2023-03-28T13:54:20.436Z,9.57
2023-03-28T13:58:29.623Z,8.23
2023-03-28T14:17:59.691Z,10.68
2023-03-28T14:20:06.510Z,7.18
2023-03-28T14:22:17.346Z,8.18
2023-03-28T14:24:22.605Z,3.00
2023-03-28T14:26:26.674Z,9.23
2023-03-28T14:28:31.079Z,5.95
2023-03-28T14:30:40.153Z,5.63
2023-03-28T14:32:57.387Z,8.27
2023-03-28T14:35:16.061Z,3.30
2023-03-28T14:37:22.572Z,2.90
2023-03-28T14:39:31.321Z,9.52
2023-03-28T14:41:35.170Z,6.47
2023-03-28T14:43:37.145Z,11.25
2023-03-28T14:45:47.920Z,7.70
2023-03-28T14:47:49.930Z,7.28
2023-03-28T14:49:55.190Z,14.35
2023-03-28T14:51:58.185Z,9.60
2023-03-28T14:54:05.030Z,5.65
2023-03-28T14:56:11.176Z,6.10
2023-03-28T14:58:16.136Z,5.95
2023-03-28T15:00:22.508Z,9.55
2023-03-28T15:02:33.969Z,5.88
2023-03-28T15:04:35.923Z,10.93
2023-03-28T15:06:39.332Z,11.15
2023-03-28T15:08:46.662Z,6.18
2023-03-28T15:17:01.620Z,14.52
2023-03-28T15:19:07.214Z,4.85
2023-03-28T15:21:10.273Z,9.52
2023-03-28T15:23:15.046Z,10.75
2023-03-28T15:25:21.873Z,11.23
2023-03-28T15:27:27.025Z,4.22
2023-03-28T15:29:31.731Z,7.80
2023-03-28T15:31:40.532Z,4.00
2023-03-28T15:34:00.912Z,8.23
2023-03-28T15:36:08.285Z,6.97
2023-03-28T15:38:12.566Z,9.88
2023-03-28T15:40:21.966Z,8.40
2023-03-28T15:42:28.980Z,5.50
2023-03-28T15:44:38.579Z,10.88
2023-03-28T15:46:40.543Z,7.53
2023-03-28T15:48:44.841Z,9.95
2023-03-28T15:50:51.076Z,11.68
2023-03-28T15:53:15.125Z,8.38
2023-03-28T15:55:21.572Z,12.43
2023-03-28T15:57:28.223Z,5.57
2023-03-28T15:59:32.860Z,8.70
2023-03-28T16:01:34.404Z,6.97
2023-03-28T16:03:38.459Z,12.07
2023-03-28T16:05:40.040Z,6.72
2023-03-28T16:07:45.874Z,6.70
2023-03-28T16:09:47.837Z,8.05
2023-03-28T16:11:51.740Z,7.03
2023-03-28T16:14:13.654Z,9.68
2023-03-28T16:16:20.556Z,13.15
2023-03-28T16:20:26.549Z,6.22
2023-03-28T16:22:28.228Z,8.38
2023-03-28T16:24:29.776Z,5.78
2023-03-28T16:26:50.275Z,9.77
2023-03-28T16:28:51.705Z,9.15
2023-03-28T16:30:55.777Z,7.68
2023-03-28T16:32:59.990Z,9.05
2023-03-28T16:35:01.583Z,5.35
2023-03-28T16:37:07.069Z,9.70
2023-03-28T16:39:10.014Z,9.85
2023-03-28T16:41:14.583Z,7.78
2023-03-28T16:43:18.587Z,8.52
2023-03-28T16:45:23.719Z,13.40
2023-03-28T16:47:25.842Z,6.95
2023-03-28T16:49:27.558Z,8.98
2023-03-28T16:53:40.304Z,10.55
2023-03-28T16:55:46.853Z,13.02
2023-03-28T16:59:54.843Z,6.53
2023-03-28T17:02:00.967Z,9.20
2023-03-28T17:04:07.580Z,6.78
2023-03-28T17:06:13.799Z,11.82
2023-03-28T17:08:17.165Z,10.88
2023-03-28T17:10:21.063Z,10.20
2023-03-28T17:12:25.223Z,15.75
2023-03-28T17:14:29.090Z,7.22
2023-03-28T17:16:35.778Z,6.88
2023-03-28T17:20:45.215Z,10.10
2023-03-28T17:22:48.697Z,11.00
2023-03-28T17:24:52.210Z,6.97
2023-03-28T17:26:55.420Z,8.70
2023-03-28T17:29:00.129Z,11.50
2023-03-28T17:31:05.337Z,16.23
2023-03-28T17:33:06.988Z,12.65
2023-03-28T17:35:26.871Z,8.82
2023-03-28T17:37:31.096Z,14.02
2023-03-28T17:41:37.766Z,10.93
2023-03-28T17:43:40.521Z,11.98
2023-03-28T17:45:42.007Z,12.02
2023-03-28T17:47:46.079Z,13.02
2023-03-28T17:49:47.568Z,16.42
2023-03-28T17:51:52.067Z,15.23
2023-03-28T17:53:56.589Z,15.82
2023-03-28T17:56:01.364Z,12.15
2023-03-28T17:58:21.987Z,13.48
2023-03-28T18:00:23.800Z,8.48
2023-03-28T18:02:28.704Z,15.35
2023-03-28T18:04:33.024Z,13.80
2023-03-28T18:06:53.542Z,6.93
2023-03-28T18:09:13.837Z,16.98
2023-03-28T18:11:18.667Z,18.60
2023-03-28T18:13:23.026Z,14.18
2023-03-28T18:15:27.376Z,17.67
2023-03-28T18:17:29.513Z,21.58
2023-03-28T18:19:31.023Z,19.90
2023-03-28T18:21:33.298Z,17.90
2023-03-28T18:23:37.457Z,21.77
2023-03-28T18:25:39.149Z,11.98
2023-03-28T18:27:41.015Z,20.15
2023-03-28T18:30:06.626Z,17.05
2023-03-28T18:32:11.017Z,11.63
2023-03-28T18:34:12.605Z,16.05
2023-03-28T18:36:17.001Z,32.15
2023-03-28T18:38:21.365Z,15.43
2023-03-28T18:40:25.627Z,20.25
2023-03-28T18:42:27.248Z,16.60
2023-03-28T18:44:47.482Z,19.42
2023-03-28T18:46:54.824Z,13.90
2023-03-28T18:49:00.196Z,20.85
2023-03-28T18:51:03.124Z,12.40
2023-03-28T18:53:23.103Z,19.50
2023-03-28T18:55:27.391Z,15.27
2023-03-28T18:57:47.414Z,19.00
2023-03-28T19:00:15.583Z,17.60
2023-03-28T19:02:17.525Z,19.65
2023-03-28T19:04:23.334Z,27.10
2023-03-28T19:06:27.920Z,10.05
2023-03-28T19:08:32.542Z,19.60
2023-03-28T19:10:36.611Z,22.17
2023-03-28T19:12:41.314Z,22.92
2023-03-28T19:14:46.391Z,16.63
2023-03-28T19:16:51.032Z,22.00
2023-03-28T19:19:10.965Z,18.80
2023-03-28T19:21:12.710Z,18.98
2023-03-28T19:23:17.335Z,20.42
2023-03-28T19:25:22.097Z,22.60
2023-03-28T19:27:26.571Z,19.23
2023-03-28T19:29:28.455Z,22.42
2023-03-28T19:31:29.956Z,23.85
2023-03-28T19:33:31.484Z,26.00
2023-03-28T19:35:33.120Z,21.63
2023-03-28T19:37:37.411Z,37.17
2023-03-28T19:39:59.200Z,25.02
2023-03-28T19:42:00.713Z,27.45
2023-03-28T19:46:11.332Z,26.58
2023-03-28T19:48:13.102Z,23.17
2023-03-28T19:50:14.640Z,25.70
2023-03-28T19:52:19.067Z,23.77
2023-03-28T19:54:23.563Z,37.35
2023-03-28T19:58:32.559Z,24.92
2023-03-28T20:00:36.976Z,21.85
2023-03-28T20:02:42.179Z,30.85
2023-03-28T20:04:46.517Z,26.27
2023-03-28T20:06:51.332Z,21.90
2023-03-28T20:08:57.617Z,27.80
2023-03-28T20:11:04.576Z,19.42
2023-03-28T20:15:14.795Z,19.73
2023-03-28T20:17:18.820Z,21.75
2023-03-28T20:19:25.967Z,40.53
2023-03-28T20:21:29.880Z,28.17
2023-03-28T20:23:35.233Z,21.83
2023-03-28T20:25:39.847Z,27.85
2023-03-28T20:27:45.569Z,24.45
2023-03-28T20:29:51.028Z,24.75
2023-03-28T20:31:58.087Z,29.38
2023-03-28T20:34:01.544Z,27.15
2023-03-28T20:36:07.811Z,27.80
2023-03-28T20:38:12.618Z,22.83
2023-03-28T20:40:14.212Z,23.92
2023-03-28T20:44:40.743Z,26.00
2023-03-28T20:47:04.705Z,16.98
2023-03-28T20:49:09.506Z,22.38
2023-03-28T20:51:15.888Z,25.42
2023-03-28T20:53:17.417Z,16.17
2023-03-28T20:55:19.707Z,19.77
2023-03-28T20:57:25.617Z,19.80
2023-03-28T20:59:30.170Z,14.35
2023-03-28T21:01:32.777Z,25.90
2023-03-28T21:03:46.924Z,19.60
2023-03-28T21:05:50.468Z,21.17
2023-03-28T21:07:55.410Z,19.13
2023-03-28T21:10:00.311Z,18.30
2023-03-28T21:12:01.786Z,31.30
2023-03-28T21:14:07.128Z,26.70
2023-03-28T21:16:11.928Z,34.78
2023-03-28T21:18:14.213Z,30.75
2023-03-28T21:20:15.967Z,18.50
2023-03-28T21:22:23.831Z,31.42
2023-03-28T21:24:25.409Z,26.63
2023-03-28T21:26:29.770Z,29.75
2023-03-28T21:28:31.215Z,32.78
2023-03-28T21:30:32.634Z,34.00
2023-03-28T21:32:34.708Z,40.25
2023-03-28T21:34:36.894Z,31.15
2023-03-28T21:36:41.444Z,30.95
2023-03-28T21:38:46.324Z,29.23
2023-03-28T21:40:50.412Z,32.38
2023-03-28T21:42:51.923Z,36.90
2023-03-28T21:44:56.255Z,30.13
2023-03-28T21:47:16.381Z,42.92
2023-03-28T21:49:20.582Z,33.58
2023-03-28T21:51:25.994Z,34.58
2023-03-28T21:53:28.511Z,30.80
2023-03-28T21:55:32.762Z,32.13
2023-03-28T21:57:34.276Z,22.20
2023-03-28T22:01:41.298Z,25.42
2023-03-28T22:03:46.212Z,27.83
2023-03-28T22:05:51.176Z,21.85
2023-03-28T22:07:55.625Z,22.48
2023-03-28T22:10:01.116Z,27.25
2023-03-28T22:12:06.049Z,25.35
2023-03-28T22:14:10.378Z,33.70
2023-03-28T22:16:16.082Z,43.30
2023-03-28T22:18:17.662Z,21.73
2023-03-28T22:20:19.920Z,24.83
2023-03-28T22:22:28.137Z,27.30
2023-03-28T22:24:48.061Z,21.05
2023-03-28T22:26:52.377Z,22.85
2023-03-28T22:28:54.718Z,28.70
2023-03-28T22:30:56.662Z,24.65
2023-03-28T22:33:19.269Z,26.42
2023-03-28T22:35:20.670Z,31.70
2023-03-28T22:39:26.226Z,24.45
2023-03-28T22:41:31.652Z,23.25
2023-03-28T22:43:37.362Z,31.35
2023-03-28T22:45:41.844Z,22.02
2023-03-28T22:47:43.321Z,25.40
2023-03-28T22:49:47.553Z,24.17
2023-03-28T22:51:49.419Z,23.70
2023-03-28T22:54:09.772Z,23.23
2023-03-28T22:56:12.349Z,25.08
2023-03-28T22:58:14.084Z,25.08
2023-03-28T23:00:34.530Z,26.13
2023-03-28T23:02:41.604Z,25.70
2023-03-28T23:04:56.077Z,32.28
2023-03-28T23:07:07.362Z,38.58
2023-03-28T23:09:32.164Z,32.00
2023-03-28T23:11:41.392Z,24.48
2023-03-28T23:13:51.886Z,31.42
2023-03-28T23:16:01.132Z,41.42
2023-03-28T23:18:09.457Z,29.00
2023-03-28T23:20:16.549Z,26.83
2023-03-28T23:22:28.034Z,21.50
2023-03-28T23:24:38.869Z,29.75
2023-03-28T23:26:48.378Z,31.60
2023-03-28T23:28:57.357Z,30.38
2023-03-28T23:31:07.533Z,32.95
2023-03-28T23:33:22.230Z,31.00
2023-03-28T23:35:31.882Z,38.45
2023-03-28T23:37:53.258Z,25.88
2023-03-28T23:39:55.349Z,33.78
2023-03-28T23:42:15.555Z,40.75
2023-03-28T23:44:17.005Z,28.30
2023-03-28T23:46:18.616Z,31.88
2023-03-28T23:48:22.785Z,31.27
2023-03-28T23:50:24.204Z,36.58
2023-03-28T23:52:28.237Z,36.53
2023-03-28T23:54:30.017Z,37.00
2023-03-28T23:56:31.857Z,34.45
2023-03-28T23:58:36.209Z,31.63
